Time;durP1;ratioP1;P1;durP2;ratioP2;P2;SDS_P1;SDS_P2;PMS_P1;PMS_P2;Temp;Humidity;BMP_temperature;BMP_pressure;BME280_temperature;BME280_humidity;BME280_pressure;Samples;Min_cycle;Max_cycle;Signal;HPM_P1;HPM_P2
2021/01/26 00:01:54;;;;;;;12.77;6.70;;;;;;;;;;10174271;28;20023;-64
2021/01/26 00:06:52;;;;;;;10.68;3.75;;;;;;;;;;10175923;28;20385;-64
2021/01/26 00:11:49;;;;;;;6.97;3.97;;;;;;;;;;10171984;28;20069;-65
2021/01/26 00:16:46;;;;;;;14.17;8.67;;;;;;;;;;10164793;28;20493;-64
2021/01/26 00:21:44;;;;;;;14.47;7.37;;;;;;;;;;10173031;28;20034;-63
2021/01/26 00:26:41;;;;;;;21.93;9.17;;;;;;;;;;10167447;28;20050;-64
2021/01/26 00:31:39;;;;;;;18.57;8.80;;;;;;;;;;10169421;28;20034;-63
2021/01/26 00:36:36;;;;;;;11.30;5.50;;;;;;;;;;10168010;28;20023;-63
2021/01/26 00:41:34;;;;;;;14.27;8.03;;;;;;;;;;10150915;28;20114;-63
2021/01/26 00:46:31;;;;;;;16.53;6.83;;;;;;;;;;10171013;28;20129;-64
2021/01/26 00:51:28;;;;;;;13.93;7.47;;;;;;;;;;10167299;28;20134;-64
2021/01/26 00:56:28;;;;;;;11.00;5.33;;;;;;;;;;10170596;28;20053;-62
2021/01/26 01:01:26;;;;;;;10.45;6.50;;;;;;;;;;10155412;28;20501;-63
2021/01/26 01:06:24;;;;;;;17.50;8.00;;;;;;;;;;10143876;28;20032;-63
2021/01/26 01:11:21;;;;;;;10.07;4.03;;;;;;;;;;10167041;28;20035;-64
2021/01/26 01:16:18;;;;;;;11.90;5.40;;;;;;;;;;10165412;28;20138;-63
2021/01/26 01:21:16;;;;;;;4.30;3.90;;;;;;;;;;10170037;28;20042;-63
2021/01/26 01:26:13;;;;;;;8.30;3.20;;;;;;;;;;10169786;28;20469;-63
2021/01/26 01:31:11;;;;;;;7.47;5.77;;;;;;;;;;10170016;28;20053;-64
2021/01/26 01:36:08;;;;;;;5.90;3.00;;;;;;;;;;10168545;28;20135;-64
2021/01/26 01:41:05;;;;;;;12.00;4.83;;;;;;;;;;10178812;28;20070;-64
2021/01/26 01:46:06;;;;;;;3.93;3.03;;;;;;;;;;10175415;28;20092;-64
2021/01/26 01:51:06;;;;;;;8.98;4.78;;;;;;;;;;10188286;28;20045;-64
2021/01/26 01:56:10;;;;;;;5.63;2.75;;;;;;;;;;10179905;28;20957;-63
2021/01/26 02:01:10;;;;;;;8.27;2.47;;;;;;;;;;10173353;28;20038;-64
2021/01/26 02:06:09;;;;;;;4.43;2.47;;;;;;;;;;10182360;28;20094;-64
2021/01/26 02:11:06;;;;;;;5.35;3.72;;;;;;;;;;10186331;28;20042;-65
2021/01/26 02:16:04;;;;;;;15.60;7.57;;;;;;;;;;10183826;28;20400;-64
2021/01/26 02:21:16;;;;;;;3.78;2.67;;;;;;;;;;10181189;28;20509;-64
2021/01/26 02:26:32;;;;;;;10.65;4.03;;;;;;;;;;10165920;28;20086;-65
2021/01/26 02:31:39;;;;;;;3.60;2.90;;;;;;;;;;10169662;28;20424;-64
2021/01/26 02:36:36;;;;;;;3.65;1.77;;;;;;;;;;10167491;28;20034;-61
2021/01/26 02:41:40;;;;;;;10.17;4.07;;;;;;;;;;10180707;28;20035;-64
2021/01/26 02:46:40;;;;;;;7.28;4.28;;;;;;;;;;10171953;28;20065;-63
2021/01/26 02:51:46;;;;;;;4.53;2.90;;;;;;;;;;10173866;28;20126;-63
2021/01/26 02:57:06;;;;;;;6.43;2.78;;;;;;;;;;10179112;28;20532;-63
2021/01/26 03:02:07;;;;;;;3.95;3.17;;;;;;;;;;10149016;28;20029;-63
2021/01/26 03:07:07;;;;;;;4.13;2.15;;;;;;;;;;10181498;28;20102;-64
2021/01/26 03:12:08;;;;;;;3.10;2.47;;;;;;;;;;10178263;28;20035;-64
2021/01/26 03:17:24;;;;;;;5.03;2.55;;;;;;;;;;10174301;28;20548;-63
2021/01/26 03:22:23;;;;;;;5.15;3.70;;;;;;;;;;10158513;28;20027;-63
2021/01/26 03:27:27;;;;;;;3.92;2.88;;;;;;;;;;10177418;28;20181;-65
2021/01/26 03:32:29;;;;;;;8.27;3.65;;;;;;;;;;10148662;28;20053;-65
2021/01/26 03:37:26;;;;;;;3.55;2.65;;;;;;;;;;10165090;28;20122;-62
2021/01/26 03:42:24;;;;;;;5.87;3.87;;;;;;;;;;10180179;28;20030;-64
2021/01/26 03:47:25;;;;;;;4.07;3.03;;;;;;;;;;10182896;28;20050;-63
2021/01/26 03:52:25;;;;;;;5.13;2.30;;;;;;;;;;10182318;28;20056;-65
2021/01/26 03:57:28;;;;;;;6.85;4.60;;;;;;;;;;10180457;28;20030;-64
2021/01/26 04:02:35;;;;;;;11.25;5.53;;;;;;;;;;10178865;28;20125;-64
2021/01/26 04:07:40;;;;;;;6.20;3.88;;;;;;;;;;10174929;28;20475;-64
2021/01/26 04:12:39;;;;;;;12.00;5.82;;;;;;;;;;10183627;28;20035;-64
2021/01/26 04:17:39;;;;;;;11.57;6.88;;;;;;;;;;10161492;28;20059;-64
2021/01/26 04:22:37;;;;;;;14.57;5.88;;;;;;;;;;10167622;28;20027;-64
2021/01/26 04:27:35;;;;;;;16.02;7.18;;;;;;;;;;10169079;28;20050;-64
2021/01/26 04:32:32;;;;;;;12.90;7.07;;;;;;;;;;10135348;28;20085;-65
2021/01/26 04:37:29;;;;;;;18.63;9.23;;;;;;;;;;10173535;28;20049;-64
2021/01/26 04:42:27;;;;;;;9.70;5.33;;;;;;;;;;10179911;28;20125;-64
2021/01/26 04:47:33;;;;;;;17.83;7.50;;;;;;;;;;10171831;28;20034;-64
2021/01/26 04:52:39;;;;;;;8.00;5.25;;;;;;;;;;10165905;28;20049;-63
2021/01/26 04:57:40;;;;;;;7.53;3.28;;;;;;;;;;10163468;28;20057;-65
2021/01/26 05:02:55;;;;;;;5.60;4.55;;;;;;;;;;10169033;28;20035;-65
2021/01/26 05:08:01;;;;;;;7.68;5.00;;;;;;;;;;10168859;28;20105;-65
2021/01/26 05:13:16;;;;;;;4.57;2.60;;;;;;;;;;10165023;28;20034;-66
2021/01/26 05:18:31;;;;;;;2.70;2.00;;;;;;;;;;10166026;28;20130;-66
2021/01/26 05:23:30;;;;;;;7.75;5.70;;;;;;;;;;10162692;28;20465;-65
2021/01/26 05:28:27;;;;;;;14.18;7.03;;;;;;;;;;10179380;28;20070;-65
2021/01/26 05:33:25;;;;;;;10.20;3.10;;;;;;;;;;10175999;28;20035;-65
2021/01/26 05:38:22;;;;;;;13.43;5.90;;;;;;;;;;10173257;28;20077;-64
2021/01/26 05:43:21;;;;;;;4.90;3.23;;;;;;;;;;10161450;28;20042;-65
2021/01/26 05:48:21;;;;;;;4.20;3.08;;;;;;;;;;10177726;28;20294;-65
2021/01/26 05:53:29;;;;;;;5.32;4.35;;;;;;;;;;10172102;28;20070;-65
2021/01/26 05:58:28;;;;;;;4.65;2.97;;;;;;;;;;10180189;28;20038;-64
2021/01/26 06:03:26;;;;;;;5.38;3.97;;;;;;;;;;10154136;28;20101;-65
2021/01/26 06:08:23;;;;;;;7.97;3.73;;;;;;;;;;10177506;28;20038;-66
2021/01/26 06:13:28;;;;;;;4.20;2.73;;;;;;;;;;10178187;28;20038;-64
2021/01/26 06:18:26;;;;;;;6.38;3.08;;;;;;;;;;10172502;28;20050;-65
2021/01/26 06:23:27;;;;;;;3.47;1.63;;;;;;;;;;10150316;28;20042;-65
2021/01/26 06:28:42;;;;;;;8.82;3.63;;;;;;;;;;10164059;28;20073;-64
2021/01/26 06:33:46;;;;;;;5.45;4.95;;;;;;;;;;10179720;28;20551;-65
2021/01/26 06:38:53;;;;;;;6.18;4.47;;;;;;;;;;10176323;28;20509;-66
2021/01/26 06:44:09;;;;;;;4.20;3.00;;;;;;;;;;10167090;28;20035;-66
2021/01/26 06:49:19;;;;;;;10.10;6.38;;;;;;;;;;10173293;28;20038;-65
2021/01/26 06:54:28;;;;;;;3.38;2.78;;;;;;;;;;10172855;28;20047;-65
2021/01/26 06:59:25;;;;;;;;;;;;;;;;;;10131473;28;20126;-64
2021/01/26 07:04:38;;;;;;;9.77;4.32;;;;;;;;;;10145936;28;19917;-65
2021/01/26 07:09:44;;;;;;;7.20;3.22;;;;;;;;;;10154574;28;20037;-66
2021/01/26 07:15:00;;;;;;;6.97;2.90;;;;;;;;;;10155439;28;20515;-65
2021/01/26 07:20:04;;;;;;;5.70;3.75;;;;;;;;;;10155357;28;20568;-65
2021/01/26 07:25:13;;;;;;;16.48;4.93;;;;;;;;;;10150799;28;20035;-65
2021/01/26 07:30:14;;;;;;;9.50;3.65;;;;;;;;;;10160558;28;20516;-65
2021/01/26 07:35:30;;;;;;;6.53;3.17;;;;;;;;;;10147639;28;20038;-65
2021/01/26 07:40:34;;;;;;;8.38;5.00;;;;;;;;;;10157739;28;20517;-65
2021/01/26 07:45:36;;;;;;;6.05;3.22;;;;;;;;;;10134192;28;20519;-65
2021/01/26 07:50:38;;;;;;;7.50;4.55;;;;;;;;;;10163431;28;20039;-65
2021/01/26 07:55:41;;;;;;;6.15;4.38;;;;;;;;;;10157152;28;20133;-63
2021/01/26 08:00:41;;;;;;;4.72;4.30;;;;;;;;;;10164144;28;20034;-64
2021/01/26 08:05:41;;;;;;;8.57;5.32;;;;;;;;;;10141133;28;20532;-65
2021/01/26 08:10:39;;;;;;;4.63;2.60;;;;;;;;;;10158301;28;20038;-65
2021/01/26 08:15:40;;;;;;;6.23;3.30;;;;;;;;;;10150973;28;20038;-65
2021/01/26 08:20:38;;;;;;;4.97;3.25;;;;;;;;;;10156311;28;20441;-66
2021/01/26 08:25:39;;;;;;;3.70;2.93;;;;;;;;;;10161545;28;20348;-64
2021/01/26 08:30:46;;;;;;;12.43;5.55;;;;;;;;;;10144182;28;20089;-65
2021/01/26 08:36:02;;;;;;;5.95;3.40;;;;;;;;;;10154045;28;20034;-65
2021/01/26 08:41:01;;;;;;;6.43;2.97;;;;;;;;;;10135396;28;20039;-65
2021/01/26 08:45:58;;;;;;;7.05;4.68;;;;;;;;;;10157569;28;20038;-65
2021/01/26 08:50:55;;;;;;;1.60;1.47;;;;;;;;;;10157269;28;20101;-65
2021/01/26 08:55:54;;;;;;;7.23;3.87;;;;;;;;;;10171666;28;20035;-66
2021/01/26 09:00:53;;;;;;;7.53;4.03;;;;;;;;;;10147491;28;20067;-65
2021/01/26 09:05:55;;;;;;;9.00;4.75;;;;;;;;;;10161967;28;20138;-64
2021/01/26 09:10:53;;;;;;;5.55;3.00;;;;;;;;;;10160224;28;20126;-65
2021/01/26 09:15:52;;;;;;;;;;;;;;;;;;10173841;28;20102;-64
2021/01/26 09:20:50;;;;;;;15.25;7.13;;;;;;;;;;10176686;28;20408;-65
2021/01/26 09:25:48;;;;;;;18.15;8.23;;;;;;;;;;10151292;28;20042;-66
2021/01/26 09:30:47;;;;;;;19.90;8.17;;;;;;;;;;10160328;28;20046;-64
2021/01/26 09:35:44;;;;;;;11.65;5.45;;;;;;;;;;10166088;28;20424;-64
2021/01/26 09:40:43;;;;;;;7.87;5.30;;;;;;;;;;10141529;28;20041;-65
2021/01/26 09:45:41;;;;;;;12.10;6.40;;;;;;;;;;10158656;28;20513;-66
2021/01/26 09:50:38;;;;;;;20.42;7.93;;;;;;;;;;10216630;23;20056;-65
2021/01/26 09:55:36;;;;;;;16.67;7.60;;;;;;;;;;10249711;28;20459;-65
2021/01/26 10:00:33;;;;;;;20.73;8.37;;;;;;;;;;10229635;28;20129;-64
2021/01/26 10:05:31;;;;;;;17.47;9.23;;;;;;;;;;10235855;28;20412;-65
2021/01/26 10:10:29;;;;;;;22.80;9.13;;;;;;;;;;10250621;28;20038;-66
2021/01/26 10:15:27;;;;;;;13.05;6.55;;;;;;;;;;10249285;28;20044;-66
2021/01/26 10:20:25;;;;;;;13.90;5.90;;;;;;;;;;10232983;28;20092;-65
2021/01/26 10:25:23;;;;;;;27.37;6.80;;;;;;;;;;10249249;28;20033;-66
2021/01/26 10:30:25;;;;;;;11.25;4.88;;;;;;;;;;10237058;28;20501;-65
2021/01/26 10:35:35;;;;;;;13.35;6.10;;;;;;;;;;10223181;28;20045;-65
2021/01/26 10:40:33;;;;;;;10.70;5.40;;;;;;;;;;10220136;28;20034;-65
2021/01/26 10:45:48;;;;;;;5.40;2.88;;;;;;;;;;10225139;28;20033;-66
2021/01/26 10:50:45;;;;;;;2.30;1.98;;;;;;;;;;10218571;28;20046;-66
2021/01/26 10:55:43;;;;;;;4.73;1.37;;;;;;;;;;10189550;28;20045;-66
2021/01/26 11:00:40;;;;;;;4.13;1.30;;;;;;;;;;10212309;28;20552;-65
2021/01/26 11:05:37;;;;;;;0.93;0.90;;;;;;;;;;10191317;28;20033;-66
2021/01/26 11:10:36;;;;;;;2.53;1.50;;;;;;;;;;10207781;28;20041;-66
2021/01/26 11:15:33;;;;;;;1.70;0.93;;;;;;;;;;10230236;28;20038;-67
2021/01/26 11:20:31;;;;;;;1.20;0.93;;;;;;;;;;10245725;28;20087;-65
2021/01/26 11:25:29;;;;;;;0.70;0.70;;;;;;;;;;10229409;28;20315;-66
2021/01/26 11:30:26;;;;;;;1.33;1.23;;;;;;;;;;10252365;28;20120;-67
2021/01/26 11:35:25;;;;;;;3.53;1.10;;;;;;;;;;10270262;28;20328;-66
2021/01/26 11:40:22;;;;;;;;;;;;;;;;;;10243316;28;20042;-65
2021/01/26 11:45:31;;;;;;;1.63;1.10;;;;;;;;;;10260070;28;19989;-64
2021/01/26 11:50:29;;;;;;;0.50;0.50;;;;;;;;;;10261068;28;20188;-64
2021/01/26 11:55:29;;;;;;;2.80;0.63;;;;;;;;;;10229151;28;20777;-63
2021/01/26 12:00:28;;;;;;;0.93;0.70;;;;;;;;;;10257078;28;20484;-64
2021/01/26 12:05:28;;;;;;;0.60;0.50;;;;;;;;;;10247958;28;20034;-62
2021/01/26 12:10:25;;;;;;;0.45;0.45;;;;;;;;;;10231498;28;20052;-63
2021/01/26 12:15:25;;;;;;;0.40;0.40;;;;;;;;;;10245635;28;20129;-64
2021/01/26 12:20:22;;;;;;;0.43;0.43;;;;;;;;;;10244547;28;20066;-64
2021/01/26 12:25:20;;;;;;;0.73;0.60;;;;;;;;;;10239548;28;20048;-64
2021/01/26 12:30:18;;;;;;;0.52;0.30;;;;;;;;;;10251798;28;20033;-64
2021/01/26 12:35:18;;;;;;;1.25;0.22;;;;;;;;;;10207526;28;20348;-64
2021/01/26 12:40:15;;;;;;;1.55;0.30;;;;;;;;;;10205648;28;20121;-62
2021/01/26 12:45:14;;;;;;;2.80;0.20;;;;;;;;;;10202576;28;20062;-63
2021/01/26 12:50:14;;;;;;;0.45;0.45;;;;;;;;;;10204119;28;20481;-64
2021/01/26 12:55:12;;;;;;;2.67;0.47;;;;;;;;;;10210714;28;20033;-63
2021/01/26 13:00:10;;;;;;;0.23;0.23;;;;;;;;;;10230754;28;20037;-63
2021/01/26 13:05:08;;;;;;;;;;;;;;;;;;10250580;28;20518;-62
2021/01/26 13:10:06;;;;;;;1.17;0.80;;;;;;;;;;10251258;28;19921;-61
2021/01/26 13:15:04;;;;;;;0.55;0.30;;;;;;;;;;10250130;28;20034;-62
2021/01/26 13:20:02;;;;;;;1.35;0.40;;;;;;;;;;10250558;28;20037;-63
2021/01/26 13:25:00;;;;;;;1.08;0.38;;;;;;;;;;10232952;28;20128;-62
2021/01/26 13:29:57;;;;;;;1.10;0.20;;;;;;;;;;10223480;28;20515;-62
2021/01/26 13:34:55;;;;;;;0.20;0.20;;;;;;;;;;10206386;28;20045;-62
2021/01/26 13:39:52;;;;;;;0.77;0.40;;;;;;;;;;10197627;28;20878;-62
2021/01/26 13:44:50;;;;;;;0.47;0.47;;;;;;;;;;10214004;28;20049;-63
2021/01/26 13:49:47;;;;;;;0.27;0.27;;;;;;;;;;10261194;28;20045;-61
2021/01/26 13:54:44;;;;;;;1.93;0.20;;;;;;;;;;10237676;28;20045;-62
2021/01/26 13:59:42;;;;;;;0.20;0.20;;;;;;;;;;10233370;28;20034;-62
2021/01/26 14:04:39;;;;;;;6.87;0.70;;;;;;;;;;10252704;28;20040;-63
2021/01/26 14:09:37;;;;;;;4.13;0.67;;;;;;;;;;10255369;28;20037;-63
2021/01/26 14:14:35;;;;;;;1.63;1.17;;;;;;;;;;10240516;28;20092;-62
2021/01/26 14:19:32;;;;;;;2.10;0.95;;;;;;;;;;10235768;28;20030;-62
2021/01/26 14:24:30;;;;;;;0.60;0.60;;;;;;;;;;10243538;28;20037;-63
2021/01/26 14:29:27;;;;;;;0.77;0.50;;;;;;;;;;10243755;28;20034;-63
2021/01/26 14:34:25;;;;;;;6.23;0.73;;;;;;;;;;10259719;28;20053;-63
2021/01/26 14:39:22;;;;;;;0.50;0.50;;;;;;;;;;10259041;28;20084;-61
2021/01/26 14:44:20;;;;;;;0.83;0.60;;;;;;;;;;10256349;28;20100;-62
2021/01/26 14:49:17;;;;;;;0.43;0.37;;;;;;;;;;10254212;28;20501;-65
2021/01/26 14:54:14;;;;;;;2.70;0.70;;;;;;;;;;10251411;28;20034;-64
2021/01/26 14:59:12;;;;;;;3.20;0.40;;;;;;;;;;10235268;28;20035;-63
2021/01/26 15:04:09;;;;;;;1.07;0.57;;;;;;;;;;10218388;28;20034;-64
2021/01/26 15:09:07;;;;;;;0.30;0.30;;;;;;;;;;10226770;28;20046;-63
2021/01/26 15:14:05;;;;;;;0.40;0.40;;;;;;;;;;10216767;28;20070;-64
2021/01/26 15:19:04;;;;;;;0.80;0.80;;;;;;;;;;10230425;28;20367;-63
2021/01/26 15:24:01;;;;;;;0.70;0.70;;;;;;;;;;10235101;28;20471;-64
2021/01/26 15:28:59;;;;;;;0.53;0.50;;;;;;;;;;10222080;28;20073;-65
2021/01/26 15:33:56;;;;;;;0.20;0.20;;;;;;;;;;10236792;28;20034;-64
2021/01/26 15:38:54;;;;;;;0.20;0.20;;;;;;;;;;10245286;28;20592;-65
2021/01/26 15:43:51;;;;;;;1.30;1.03;;;;;;;;;;10224038;28;20042;-63
2021/01/26 15:48:49;;;;;;;0.30;0.30;;;;;;;;;;10223967;28;20030;-64
2021/01/26 15:53:46;;;;;;;0.77;0.50;;;;;;;;;;10233838;28;20096;-64
2021/01/26 15:58:44;;;;;;;0.23;0.23;;;;;;;;;;10217855;28;20084;-62
2021/01/26 16:03:41;;;;;;;0.20;0.20;;;;;;;;;;10197791;28;20053;-64
2021/01/26 16:08:38;;;;;;;0.90;0.90;;;;;;;;;;10212382;28;20041;-64
2021/01/26 16:13:36;;;;;;;3.77;0.83;;;;;;;;;;10245112;28;20136;-64
2021/01/26 16:18:34;;;;;;;0.40;0.40;;;;;;;;;;10257105;28;20065;-63
2021/01/26 16:23:31;;;;;;;6.70;1.23;;;;;;;;;;10244647;28;20044;-64
2021/01/26 16:28:29;;;;;;;5.03;1.03;;;;;;;;;;10247927;28;20037;-64
2021/01/26 16:33:26;;;;;;;0.63;0.63;;;;;;;;;;10230869;28;20492;-64
2021/01/26 16:38:24;;;;;;;1.40;0.77;;;;;;;;;;10236400;28;20033;-65
2021/01/26 16:43:21;;;;;;;1.23;1.17;;;;;;;;;;10246718;28;20034;-62
2021/01/26 16:48:19;;;;;;;0.47;0.47;;;;;;;;;;10239527;28;20042;-63
2021/01/26 16:53:17;;;;;;;5.17;0.87;;;;;;;;;;10243293;28;20335;-63
2021/01/26 16:58:14;;;;;;;1.10;1.00;;;;;;;;;;10240535;28;20049;-63
2021/01/26 17:03:14;;;;;;;0.83;0.67;;;;;;;;;;10242192;28;20034;-63
2021/01/26 17:08:12;;;;;;;1.98;0.85;;;;;;;;;;10249876;28;20045;-64
2021/01/26 17:13:10;;;;;;;0.80;0.73;;;;;;;;;;10255477;28;20664;-62
2021/01/26 17:18:09;;;;;;;0.77;0.63;;;;;;;;;;10233649;28;20041;-62
2021/01/26 17:23:08;;;;;;;1.02;0.77;;;;;;;;;;10250911;28;20597;-62
2021/01/26 17:28:07;;;;;;;0.85;0.60;;;;;;;;;;10252797;28;20572;-62
2021/01/26 17:33:04;;;;;;;;;;;;;;;;;;10225063;28;20453;-62
2021/01/26 17:38:02;;;;;;;0.73;0.73;;;;;;;;;;10237455;28;20011;-62
2021/01/26 17:42:59;;;;;;;1.80;0.70;;;;;;;;;;10238365;28;20038;-62
2021/01/26 17:47:57;;;;;;;0.67;0.67;;;;;;;;;;10253068;28;20109;-63
2021/01/26 17:52:55;;;;;;;0.80;0.80;;;;;;;;;;10242452;28;20046;-63
2021/01/26 17:57:52;;;;;;;0.80;0.80;;;;;;;;;;10229405;28;20145;-61
2021/01/26 18:02:50;;;;;;;1.60;0.90;;;;;;;;;;10233581;28;20049;-63
2021/01/26 18:07:50;;;;;;;1.45;1.35;;;;;;;;;;10249483;28;20041;-62
2021/01/26 18:12:47;;;;;;;1.95;1.58;;;;;;;;;;10244766;28;20038;-62
2021/01/26 18:17:45;;;;;;;3.60;1.60;;;;;;;;;;10244021;28;20042;-61
2021/01/26 18:22:42;;;;;;;1.87;1.67;;;;;;;;;;10248077;28;20567;-60
2021/01/26 18:27:41;;;;;;;1.67;1.50;;;;;;;;;;10233471;28;20076;-63
2021/01/26 18:32:38;;;;;;;;;;;;;;;;;;10189573;28;20070;-63
2021/01/26 18:37:39;;;;;;;1.73;1.48;;;;;;;;;;10235523;28;19956;-64
2021/01/26 18:42:36;;;;;;;1.90;1.20;;;;;;;;;;10244910;28;20559;-62
2021/01/26 18:47:36;;;;;;;4.33;1.50;;;;;;;;;;10242603;28;20057;-62
2021/01/26 18:52:34;;;;;;;1.63;1.30;;;;;;;;;;10250003;28;20069;-62
2021/01/26 18:57:32;;;;;;;3.17;0.90;;;;;;;;;;10238614;28;20113;-62
2021/01/26 19:02:29;;;;;;;1.67;1.10;;;;;;;;;;10236025;28;20116;-61
2021/01/26 19:07:26;;;;;;;1.47;1.20;;;;;;;;;;10233182;28;20465;-60
2021/01/26 19:12:25;;;;;;;1.80;1.40;;;;;;;;;;10244944;28;20418;-62
2021/01/26 19:17:22;;;;;;;5.00;1.17;;;;;;;;;;10241113;28;20080;-62
2021/01/26 19:22:20;;;;;;;1.50;1.40;;;;;;;;;;10233071;28;20042;-62
2021/01/26 19:27:17;;;;;;;5.60;1.43;;;;;;;;;;10245688;28;20033;-62
2021/01/26 19:32:15;;;;;;;3.67;1.57;;;;;;;;;;10229702;28;20557;-62
2021/01/26 19:37:13;;;;;;;3.47;1.27;;;;;;;;;;10224425;28;20026;-62
2021/01/26 19:42:11;;;;;;;3.40;1.30;;;;;;;;;;10244466;28;20380;-62
2021/01/26 19:47:08;;;;;;;3.33;1.30;;;;;;;;;;10201087;28;20026;-62
2021/01/26 19:52:06;;;;;;;0.93;0.90;;;;;;;;;;10232073;28;20046;-62
2021/01/26 19:57:03;;;;;;;1.20;1.10;;;;;;;;;;10236171;28;20034;-61
2021/01/26 20:02:01;;;;;;;6.37;1.90;;;;;;;;;;10241153;28;20140;-64
2021/01/26 20:06:58;;;;;;;2.77;1.70;;;;;;;;;;10224346;28;20030;-64
2021/01/26 20:11:56;;;;;;;3.37;1.60;;;;;;;;;;10231737;28;20578;-63
2021/01/26 20:16:54;;;;;;;6.38;2.00;;;;;;;;;;10237474;28;20109;-63
2021/01/26 20:21:52;;;;;;;1.40;1.30;;;;;;;;;;10230356;28;20907;-62
2021/01/26 20:26:49;;;;;;;2.85;1.73;;;;;;;;;;10242249;28;20045;-61
2021/01/26 20:31:46;;;;;;;3.43;1.67;;;;;;;;;;10238022;28;20038;-61
2021/01/26 20:36:44;;;;;;;2.13;1.40;;;;;;;;;;10204172;28;20576;-62
2021/01/26 20:41:41;;;;;;;4.83;1.80;;;;;;;;;;10216320;28;20514;-59
2021/01/26 20:46:39;;;;;;;3.63;1.73;;;;;;;;;;10254992;28;20069;-61
2021/01/26 20:51:37;;;;;;;6.88;3.85;;;;;;;;;;10253746;28;20046;-62
2021/01/26 20:56:34;;;;;;;7.53;2.70;;;;;;;;;;10266442;28;20451;-61
2021/01/26 21:01:31;;;;;;;8.70;2.63;;;;;;;;;;10254466;28;20136;-63
2021/01/26 21:06:29;;;;;;;4.83;2.73;;;;;;;;;;10241343;28;20034;-63
2021/01/26 21:11:26;;;;;;;8.37;4.13;;;;;;;;;;10252102;28;20402;-62
2021/01/26 21:16:24;;;;;;;7.10;3.50;;;;;;;;;;10213568;28;20038;-64
2021/01/26 21:21:21;;;;;;;9.23;2.83;;;;;;;;;;10253717;28;20049;-61
2021/01/26 21:26:19;;;;;;;3.60;2.43;;;;;;;;;;10256205;28;20041;-63
2021/01/26 21:31:16;;;;;;;5.73;3.20;;;;;;;;;;10265518;28;20044;-62
2021/01/26 21:36:13;;;;;;;2.80;2.33;;;;;;;;;;10251324;28;20061;-62
2021/01/26 21:41:11;;;;;;;2.43;2.20;;;;;;;;;;10245390;28;20026;-63
2021/01/26 21:46:09;;;;;;;11.93;4.15;;;;;;;;;;10255451;28;20052;-63
2021/01/26 21:51:06;;;;;;;4.03;2.77;;;;;;;;;;10238869;28;20045;-63
2021/01/26 21:56:04;;;;;;;5.40;3.40;;;;;;;;;;10235587;28;20037;-65
2021/01/26 22:01:01;;;;;;;3.03;2.10;;;;;;;;;;10213863;28;20049;-63
2021/01/26 22:05:59;;;;;;;6.37;3.43;;;;;;;;;;10230960;28;20096;-63
2021/01/26 22:10:56;;;;;;;7.07;2.67;;;;;;;;;;10252009;28;20038;-63
2021/01/26 22:15:54;;;;;;;4.17;2.80;;;;;;;;;;10221180;28;20110;-62
2021/01/26 22:20:51;;;;;;;1.93;1.83;;;;;;;;;;10235712;28;20042;-62
2021/01/26 22:25:49;;;;;;;4.87;3.33;;;;;;;;;;10260366;28;20166;-62
2021/01/26 22:30:46;;;;;;;4.03;3.10;;;;;;;;;;10221467;28;20042;-63
2021/01/26 22:35:44;;;;;;;9.87;3.27;;;;;;;;;;10255038;28;20056;-63
2021/01/26 22:40:42;;;;;;;2.87;2.57;;;;;;;;;;10230063;28;20026;-62
2021/01/26 22:45:40;;;;;;;8.18;3.08;;;;;;;;;;10232476;28;20037;-63
2021/01/26 22:50:38;;;;;;;5.53;3.13;;;;;;;;;;10236508;28;20041;-62
2021/01/26 22:55:35;;;;;;;5.47;3.27;;;;;;;;;;10250590;28;20030;-63
2021/01/26 23:00:34;;;;;;;3.97;2.37;;;;;;;;;;10253438;28;20395;-63
2021/01/26 23:05:33;;;;;;;4.70;2.95;;;;;;;;;;10213569;28;20038;-63
2021/01/26 23:10:33;;;;;;;3.85;3.05;;;;;;;;;;10174890;28;20472;-61
2021/01/26 23:15:32;;;;;;;6.72;2.45;;;;;;;;;;10198374;28;20030;-64
2021/01/26 23:20:30;;;;;;;4.43;2.55;;;;;;;;;;10237730;28;20034;-64
2021/01/26 23:25:28;;;;;;;;;;;;;;;;;;10231006;28;20488;-63
2021/01/26 23:30:27;;;;;;;7.60;3.60;;;;;;;;;;10252952;28;20415;-63
2021/01/26 23:35:25;;;;;;;8.73;3.70;;;;;;;;;;10246859;28;20818;-62
2021/01/26 23:40:24;;;;;;;6.13;3.37;;;;;;;;;;10241433;28;20038;-65
2021/01/26 23:45:23;;;;;;;7.88;2.42;;;;;;;;;;10254470;28;20045;-62
2021/01/26 23:50:23;;;;;;;4.70;2.90;;;;;;;;;;10250502;28;20511;-63
2021/01/26 23:55:21;;;;;;;5.05;2.33;;;;;;;;;;10250154;28;20033;-63
